createdAt,value
2023-02-15T00:00:02.181Z,89.73
2023-02-15T00:01:02.159Z,89.52
2023-02-15T00:02:02.273Z,89.52
2023-02-15T00:03:02.220Z,89.52
2023-02-15T00:04:02.131Z,89.52
2023-02-15T00:05:02.142Z,89.31
2023-02-15T00:06:02.395Z,89.20
2023-02-15T00:07:02.109Z,89.00
2023-02-15T00:08:02.106Z,88.93
2023-02-15T00:09:02.106Z,88.93
2023-02-15T00:10:02.071Z,88.83
2023-02-15T00:11:02.059Z,88.83
2023-02-15T00:12:02.048Z,88.83
2023-02-15T00:13:02.048Z,88.83
2023-02-15T00:14:02.057Z,89.04
2023-02-15T00:15:02.020Z,89.14
2023-02-15T00:16:02.338Z,89.14
2023-02-15T00:17:01.999Z,89.14
2023-02-15T00:18:01.987Z,89.04
2023-02-15T00:19:01.984Z,88.93
2023-02-15T00:20:01.973Z,88.73
2023-02-15T00:21:01.988Z,88.62
2023-02-15T00:22:01.957Z,88.83
2023-02-15T00:23:01.927Z,88.93
2023-02-15T00:24:01.919Z,89.04
2023-02-15T00:25:01.916Z,89.14
2023-02-15T00:26:02.172Z,89.18
2023-02-15T00:27:01.909Z,89.39
2023-02-15T00:28:01.879Z,89.60
2023-02-15T00:29:01.883Z,89.70
2023-02-15T00:30:01.912Z,89.70
2023-02-15T00:31:01.923Z,89.70
2023-02-15T00:32:01.832Z,89.70
2023-02-15T00:33:01.828Z,89.50
2023-02-15T00:34:01.819Z,89.29
2023-02-15T00:35:01.827Z,89.29
2023-02-15T00:36:02.129Z,89.39
2023-02-15T00:37:01.787Z,89.39
2023-02-15T00:38:01.778Z,89.50
2023-02-15T00:39:01.774Z,89.50
2023-02-15T00:40:01.816Z,89.39
2023-02-15T00:41:01.751Z,89.70
2023-02-15T00:42:01.730Z,89.91
2023-02-15T00:43:01.734Z,90.12
2023-02-15T00:44:01.707Z,90.33
2023-02-15T00:45:01.800Z,90.85
2023-02-15T00:46:02.076Z,91.16
2023-02-15T00:47:01.691Z,91.27
2023-02-15T00:48:01.668Z,91.27
2023-02-15T00:49:01.662Z,91.37
2023-02-15T00:50:01.668Z,91.47
2023-02-15T00:51:01.651Z,91.37
2023-02-15T00:52:01.644Z,91.47
2023-02-15T00:53:01.633Z,91.37
2023-02-15T00:54:01.610Z,91.27
2023-02-15T00:55:01.625Z,91.10
2023-02-15T00:56:01.830Z,91.20
2023-02-15T00:57:01.599Z,91.20
2023-02-15T00:58:01.570Z,91.00
2023-02-15T00:59:01.560Z,90.89
2023-02-15T01:00:01.554Z,91.00
2023-02-15T01:01:01.578Z,91.10
2023-02-15T01:02:01.562Z,91.20
2023-02-15T01:03:01.523Z,91.10
2023-02-15T01:04:01.513Z,90.89
2023-02-15T01:05:01.511Z,90.58
2023-02-15T01:06:01.750Z,90.37
2023-02-15T01:07:01.482Z,90.16
2023-02-15T01:08:01.479Z,90.16
2023-02-15T01:09:01.463Z,90.26
2023-02-15T01:10:01.444Z,90.26
2023-02-15T01:11:01.451Z,90.47
2023-02-15T01:12:01.433Z,90.68
2023-02-15T01:13:01.412Z,90.89
2023-02-15T01:14:01.440Z,91.00
2023-02-15T01:15:01.424Z,91.10
2023-02-15T01:16:01.681Z,91.20
2023-02-15T01:17:01.379Z,91.31
2023-02-15T01:18:01.362Z,91.10
2023-02-15T01:19:01.377Z,91.10
2023-02-15T01:20:01.354Z,91.00
2023-02-15T01:21:01.336Z,90.68
2023-02-15T01:22:01.325Z,90.58
2023-02-15T01:23:01.314Z,90.58
2023-02-15T01:24:01.336Z,90.62
2023-02-15T01:25:01.302Z,90.62
2023-02-15T01:26:01.639Z,90.72
2023-02-15T01:27:01.274Z,90.72
2023-02-15T01:28:01.256Z,90.72
2023-02-15T01:29:01.267Z,90.93
2023-02-15T01:30:01.269Z,90.93
2023-02-15T01:31:01.272Z,90.93
2023-02-15T01:32:01.362Z,90.93
2023-02-15T01:33:01.207Z,91.14
2023-02-15T01:34:01.235Z,91.35
2023-02-15T01:35:01.187Z,91.56
2023-02-15T01:36:01.487Z,91.56
2023-02-15T01:37:01.175Z,91.56
2023-02-15T01:38:01.168Z,91.35
2023-02-15T01:39:01.155Z,91.14
2023-02-15T01:40:01.154Z,91.14
2023-02-15T01:41:01.128Z,91.14
2023-02-15T01:42:01.117Z,91.14
2023-02-15T01:43:01.115Z,91.08
2023-02-15T01:44:01.106Z,90.97
2023-02-15T01:45:01.095Z,91.08
2023-02-15T01:46:01.441Z,91.18
2023-02-15T01:47:01.075Z,91.18
2023-02-15T01:48:01.096Z,91.18
2023-02-15T01:49:01.075Z,91.29
2023-02-15T01:50:01.048Z,91.39
2023-02-15T01:51:01.475Z,91.39
2023-02-15T01:52:01.005Z,91.39
2023-02-15T01:53:01.006Z,91.39
2023-02-15T01:54:00.993Z,91.29
2023-02-15T01:55:01.030Z,91.18
2023-02-15T01:56:01.269Z,91.08
2023-02-15T01:57:00.959Z,90.77
2023-02-15T01:58:00.952Z,90.56
2023-02-15T01:59:00.933Z,90.77
2023-02-15T02:00:00.942Z,90.66
2023-02-15T02:01:01.379Z,90.66
2023-02-15T02:02:00.904Z,90.66
2023-02-15T02:03:00.920Z,90.45
2023-02-15T02:04:00.892Z,90.45
2023-02-15T02:05:00.884Z,90.56
2023-02-15T02:06:01.144Z,90.66
2023-02-15T02:07:00.859Z,90.87
2023-02-15T02:08:00.841Z,90.87
2023-02-15T02:09:00.851Z,90.66
2023-02-15T02:10:00.822Z,90.66
2023-02-15T02:11:00.832Z,90.56
2023-02-15T02:12:00.811Z,90.56
2023-02-15T02:13:00.798Z,90.56
2023-02-15T02:14:00.774Z,90.66
2023-02-15T02:15:00.816Z,90.66
2023-02-15T02:16:01.151Z,90.66
2023-02-15T02:17:00.754Z,90.87
2023-02-15T02:18:00.751Z,91.02
2023-02-15T02:19:00.728Z,91.22
2023-02-15T02:20:00.719Z,91.22
2023-02-15T02:21:00.707Z,91.08
2023-02-15T02:22:00.692Z,91.02
2023-02-15T02:23:00.688Z,91.22
2023-02-15T02:24:00.679Z,91.22
2023-02-15T02:25:00.676Z,91.54
2023-02-15T02:26:00.974Z,92.06
2023-02-15T02:27:00.660Z,92.47
2023-02-15T02:28:00.630Z,92.79
2023-02-15T02:29:00.629Z,92.90
2023-02-15T02:30:00.708Z,93.10
2023-02-15T02:31:00.793Z,93.10
2023-02-15T02:32:00.654Z,93.00
2023-02-15T02:33:00.591Z,92.79
2023-02-15T02:34:00.595Z,92.37
2023-02-15T02:35:00.549Z,92.06
2023-02-15T02:36:00.845Z,91.85
2023-02-15T02:37:00.531Z,91.54
2023-02-15T02:38:00.549Z,91.43
2023-02-15T02:39:00.529Z,91.43
2023-02-15T02:40:00.519Z,91.54
2023-02-15T02:41:00.507Z,91.64
2023-02-15T02:42:00.489Z,91.75
2023-02-15T02:43:00.480Z,91.75
2023-02-15T02:44:00.460Z,91.64
2023-02-15T02:45:00.459Z,91.54
2023-02-15T02:46:00.857Z,91.54
2023-02-15T02:47:00.430Z,91.37
2023-02-15T02:48:00.431Z,91.27
2023-02-15T02:49:00.399Z,91.16
2023-02-15T02:50:00.403Z,91.16
2023-02-15T02:51:00.411Z,91.16
2023-02-15T02:52:00.399Z,91.27
2023-02-15T02:53:00.373Z,91.69
2023-02-15T02:54:00.374Z,91.79
2023-02-15T02:55:00.349Z,91.89
2023-02-15T02:56:00.758Z,91.89
2023-02-15T02:57:00.337Z,91.89
2023-02-15T02:58:00.327Z,91.89
2023-02-15T02:59:00.314Z,91.79
2023-02-15T03:00:00.304Z,91.69
2023-02-15T03:01:00.306Z,91.69
2023-02-15T03:02:00.373Z,91.69
2023-02-15T03:03:00.369Z,91.69
2023-02-15T03:04:00.271Z,91.79
2023-02-15T03:05:00.260Z,91.69
2023-02-15T03:06:00.574Z,91.58
2023-02-15T03:07:00.220Z,91.37
2023-02-15T03:08:00.246Z,91.16
2023-02-15T03:09:00.212Z,91.16
2023-02-15T03:10:00.213Z,91.16
2023-02-15T03:11:00.193Z,91.16
2023-02-15T03:12:00.189Z,91.16
2023-02-15T03:13:00.183Z,90.95
2023-02-15T03:14:00.152Z,90.95
2023-02-15T03:15:00.145Z,91.06
2023-02-15T03:16:00.577Z,91.06
2023-02-15T03:17:00.152Z,90.95
2023-02-15T03:18:00.131Z,90.78
2023-02-15T03:19:00.131Z,90.78
2023-02-15T03:20:00.119Z,90.89
2023-02-15T03:21:00.112Z,91.00
2023-02-15T03:22:00.075Z,91.10
2023-02-15T03:23:00.090Z,91.20
2023-02-15T03:24:00.120Z,91.41
2023-02-15T03:25:00.035Z,91.83
2023-02-15T03:26:00.364Z,92.25
2023-02-15T03:27:00.028Z,92.56
2023-02-15T03:28:00.014Z,92.77
2023-02-15T03:28:59.997Z,93.02
2023-02-15T03:30:00.107Z,93.33
2023-02-15T03:31:00.069Z,93.54
2023-02-15T03:32:00.127Z,93.76
2023-02-15T03:32:59.959Z,93.86
2023-02-15T03:33:59.981Z,94.07
2023-02-15T03:35:00.054Z,94.17
2023-02-15T03:36:00.421Z,94.27
2023-02-15T03:36:59.939Z,94.32
2023-02-15T03:37:59.918Z,94.53
2023-02-15T03:38:59.908Z,94.64
2023-02-15T03:39:59.889Z,94.64
2023-02-15T03:40:59.892Z,94.64
2023-02-15T03:41:59.872Z,94.59
2023-02-15T03:42:59.849Z,94.74
2023-02-15T03:43:59.857Z,94.84
2023-02-15T03:44:59.829Z,94.84
2023-02-15T03:46:00.216Z,95.05
2023-02-15T03:46:59.884Z,95.15
2023-02-15T03:47:59.809Z,95.37
2023-02-15T03:48:59.798Z,95.47
2023-02-15T03:49:59.786Z,95.57
2023-02-15T03:50:59.795Z,95.68
2023-02-15T03:52:00.586Z,95.64
2023-02-15T03:53:00.466Z,95.43
2023-02-15T03:53:59.769Z,95.32
2023-02-15T03:54:59.775Z,95.21
2023-02-15T03:56:00.053Z,95.21
2023-02-15T03:56:59.717Z,95.11
2023-02-15T03:57:59.710Z,94.90
2023-02-15T03:58:59.687Z,94.80
2023-02-15T03:59:59.754Z,94.70
2023-02-15T04:00:59.773Z,94.80
2023-02-15T04:01:59.657Z,95.01
2023-02-15T04:02:59.686Z,95.11
2023-02-15T04:03:59.696Z,95.32
2023-02-15T04:05:00.631Z,95.53
2023-02-15T04:06:00.023Z,95.64
2023-02-15T04:07:00.326Z,95.84
2023-02-15T04:07:59.638Z,96.05
2023-02-15T04:09:00.306Z,96.16
2023-02-15T04:09:59.594Z,96.37
2023-02-15T04:11:00.266Z,96.47
2023-02-15T04:11:59.621Z,96.47
2023-02-15T04:13:01.982Z,96.58
2023-02-15T04:13:59.569Z,96.58
2023-02-15T04:15:00.606Z,96.53
2023-02-15T04:15:59.863Z,96.53
2023-02-15T04:16:59.644Z,96.43
2023-02-15T04:17:59.545Z,96.43
2023-02-15T04:18:59.767Z,96.53
2023-02-15T04:19:59.465Z,96.84
2023-02-15T04:20:59.537Z,96.95
2023-02-15T04:21:59.497Z,97.10
2023-02-15T04:22:59.444Z,97.20
2023-02-15T04:23:59.434Z,97.52
2023-02-15T04:24:59.426Z,97.72
2023-02-15T04:25:59.786Z,98.04
2023-02-15T04:26:59.437Z,98.14
2023-02-15T04:27:59.393Z,98.35
2023-02-15T04:28:59.412Z,98.56
2023-02-15T04:29:59.399Z,98.77
2023-02-15T04:30:59.454Z,98.98
2023-02-15T04:31:59.436Z,99.29
2023-02-15T04:32:59.379Z,99.51
2023-02-15T04:33:59.312Z,99.71
2023-02-15T04:34:59.329Z,99.92
2023-02-15T04:35:59.590Z,99.99
2023-02-15T04:36:59.394Z,99.99
2023-02-15T04:37:59.391Z,99.99
2023-02-15T04:38:59.290Z,99.99
2023-02-15T04:39:59.350Z,99.99
2023-02-15T04:40:59.464Z,99.99
2023-02-15T04:41:59.248Z,99.99
2023-02-15T04:42:59.252Z,99.99
2023-02-15T04:43:59.229Z,99.99
2023-02-15T04:44:59.340Z,99.99
2023-02-15T04:45:59.443Z,99.99
2023-02-15T04:46:59.243Z,99.99
2023-02-15T04:47:59.199Z,99.99
2023-02-15T04:48:59.219Z,99.99
2023-02-15T04:49:59.164Z,99.99
2023-02-15T04:50:59.196Z,99.99
2023-02-15T04:51:59.195Z,99.99
2023-02-15T04:52:59.149Z,99.99
2023-02-15T04:53:59.131Z,99.88
2023-02-15T04:54:59.122Z,99.98
2023-02-15T04:55:59.262Z,99.88
2023-02-15T04:56:59.110Z,99.88
2023-02-15T04:57:59.108Z,99.77
2023-02-15T04:58:59.097Z,99.56
2023-02-15T04:59:59.072Z,99.46
2023-02-15T05:00:59.165Z,99.35
2023-02-15T05:01:59.119Z,99.15
2023-02-15T05:02:59.044Z,98.93
2023-02-15T05:03:59.107Z,98.93
2023-02-15T05:04:59.011Z,98.93
2023-02-15T05:05:59.234Z,99.04
2023-02-15T05:06:59.015Z,99.04
2023-02-15T05:07:58.971Z,99.04
2023-02-15T05:08:58.980Z,99.04
2023-02-15T05:09:59.042Z,98.83
2023-02-15T05:10:59.061Z,98.62
2023-02-15T05:11:59.000Z,98.52
2023-02-15T05:13:02.884Z,98.46
2023-02-15T05:13:58.915Z,98.35
2023-02-15T05:14:58.931Z,98.35
2023-02-15T05:15:58.968Z,98.25
2023-02-15T05:16:58.953Z,98.35
2023-02-15T05:17:58.914Z,98.46
2023-02-15T05:18:58.894Z,98.56
2023-02-15T05:19:58.861Z,98.88
2023-02-15T05:20:58.913Z,99.08
2023-02-15T05:21:58.831Z,99.19
2023-02-15T05:22:58.891Z,99.29
2023-02-15T05:23:58.805Z,99.40
2023-02-15T05:24:58.793Z,99.40
2023-02-15T05:25:58.834Z,99.40
2023-02-15T05:26:58.781Z,99.29
2023-02-15T05:27:58.786Z,99.19
2023-02-15T05:28:58.764Z,99.13
2023-02-15T05:29:58.882Z,99.02
2023-02-15T05:30:58.921Z,98.92
2023-02-15T05:31:59.873Z,98.92
2023-02-15T05:32:58.754Z,98.82
2023-02-15T05:33:58.721Z,98.77
2023-02-15T05:34:58.711Z,98.77
2023-02-15T05:35:58.730Z,98.56
2023-02-15T05:36:58.697Z,98.46
2023-02-15T05:37:58.695Z,98.35
2023-02-15T05:38:58.667Z,98.14
2023-02-15T05:39:58.647Z,97.83
2023-02-15T05:40:58.654Z,97.52
2023-02-15T05:41:58.640Z,97.31
2023-02-15T05:42:58.665Z,97.00
2023-02-15T05:43:58.611Z,96.68
2023-02-15T05:44:58.658Z,96.58
2023-02-15T05:45:58.689Z,96.47
2023-02-15T05:46:58.583Z,96.47
2023-02-15T05:47:58.669Z,96.37
2023-02-15T05:48:58.599Z,96.26
2023-02-15T05:49:58.560Z,96.37
2023-02-15T05:50:58.547Z,96.37
2023-02-15T05:51:58.567Z,96.26
2023-02-15T05:52:58.549Z,96.16
2023-02-15T05:53:58.517Z,96.05
2023-02-15T05:54:58.519Z,96.01
2023-02-15T05:55:58.532Z,95.90
2023-02-15T05:56:58.501Z,95.64
2023-02-15T05:57:58.508Z,95.53
2023-02-15T05:58:58.535Z,95.53
2023-02-15T05:59:58.460Z,95.43
2023-02-15T06:00:58.470Z,95.43
2023-02-15T06:01:58.460Z,95.43
2023-02-15T06:02:58.432Z,95.21
2023-02-15T06:03:58.415Z,95.21
2023-02-15T06:04:58.401Z,95.21
2023-02-15T06:05:58.381Z,95.32
2023-02-15T06:06:58.389Z,95.43
2023-02-15T06:07:58.390Z,95.64
2023-02-15T06:08:58.385Z,95.99
2023-02-15T06:09:58.336Z,96.16
2023-02-15T06:10:58.342Z,96.37
2023-02-15T06:11:58.406Z,96.37
2023-02-15T06:12:58.450Z,96.31
2023-02-15T06:13:58.307Z,96.37
2023-02-15T06:14:58.301Z,96.37
2023-02-15T06:15:58.385Z,96.37
2023-02-15T06:16:58.301Z,96.37
2023-02-15T06:17:58.305Z,96.26
2023-02-15T06:18:58.263Z,96.26
2023-02-15T06:19:58.306Z,96.16
2023-02-15T06:20:58.241Z,96.05
2023-02-15T06:21:58.220Z,96.10
2023-02-15T06:22:58.259Z,96.31
2023-02-15T06:23:58.304Z,96.51
2023-02-15T06:24:58.215Z,96.72
2023-02-15T06:25:58.250Z,96.94
2023-02-15T06:26:58.177Z,97.04
2023-02-15T06:27:58.202Z,97.14
2023-02-15T06:28:58.176Z,97.25
2023-02-15T06:29:58.152Z,97.35
2023-02-15T06:30:58.299Z,97.35
2023-02-15T06:31:58.185Z,97.35
2023-02-15T06:32:58.114Z,97.45
2023-02-15T06:33:58.096Z,97.45
2023-02-15T06:34:58.188Z,97.56
2023-02-15T06:35:58.105Z,97.56
2023-02-15T06:36:58.177Z,97.56
2023-02-15T06:37:58.074Z,97.56
2023-02-15T06:38:58.116Z,97.56
2023-02-15T06:39:58.021Z,97.56
2023-02-15T06:40:58.025Z,97.56
2023-02-15T06:41:58.000Z,97.67
2023-02-15T06:42:58.014Z,97.56
2023-02-15T06:43:57.991Z,97.56
2023-02-15T06:44:58.036Z,97.56
2023-02-15T06:45:58.122Z,97.56
2023-02-15T06:46:57.960Z,97.45
2023-02-15T06:47:57.954Z,97.45
2023-02-15T06:48:58.009Z,97.45
2023-02-15T06:49:57.971Z,97.56
2023-02-15T06:50:57.946Z,97.56
2023-02-15T06:51:57.921Z,97.67
2023-02-15T06:52:57.915Z,97.67
2023-02-15T06:53:58.115Z,97.67
2023-02-15T06:54:57.967Z,97.67
2023-02-15T06:55:57.908Z,97.67
2023-02-15T06:56:57.921Z,97.56
2023-02-15T06:57:57.850Z,97.56
2023-02-15T06:58:57.842Z,97.67
2023-02-15T06:59:57.897Z,97.67
2023-02-15T07:00:57.822Z,97.67
2023-02-15T07:01:57.985Z,97.77
2023-02-15T07:02:57.908Z,97.77
2023-02-15T07:03:57.783Z,97.77
2023-02-15T07:04:57.894Z,97.67
2023-02-15T07:05:57.762Z,97.56
2023-02-15T07:06:57.760Z,97.67
2023-02-15T07:07:57.794Z,97.67
2023-02-15T07:08:57.725Z,97.67
2023-02-15T07:09:57.807Z,97.56
2023-02-15T07:10:57.844Z,97.56
2023-02-15T07:11:57.714Z,97.41
2023-02-15T07:12:57.682Z,97.31
2023-02-15T07:13:57.696Z,97.20
2023-02-15T07:14:57.656Z,97.20
2023-02-15T07:15:57.684Z,97.10
2023-02-15T07:16:57.702Z,97.00
2023-02-15T07:17:57.653Z,97.00
2023-02-15T07:18:57.685Z,96.89
2023-02-15T07:19:57.613Z,96.68
2023-02-15T07:20:57.653Z,96.58
2023-02-15T07:21:57.586Z,96.58
2023-02-15T07:22:57.593Z,96.58
2023-02-15T07:23:57.577Z,96.47
2023-02-15T07:24:57.565Z,96.47
2023-02-15T07:25:57.570Z,96.37
2023-02-15T07:26:57.537Z,96.26
2023-02-15T07:27:57.554Z,96.16
2023-02-15T07:28:57.593Z,96.16
2023-02-15T07:29:57.571Z,96.16
2023-02-15T07:30:57.608Z,96.16
2023-02-15T07:31:57.525Z,96.26
2023-02-15T07:32:57.566Z,96.26
2023-02-15T07:33:57.538Z,96.37
2023-02-15T07:34:57.503Z,96.37
2023-02-15T07:35:57.535Z,96.37
2023-02-15T07:36:57.438Z,96.16
2023-02-15T07:37:57.427Z,95.95
2023-02-15T07:38:57.485Z,95.84
2023-02-15T07:39:57.423Z,95.74
2023-02-15T07:40:57.383Z,95.84
2023-02-15T07:41:57.369Z,95.84
2023-02-15T07:42:57.389Z,95.95
2023-02-15T07:43:57.368Z,96.16
2023-02-15T07:44:57.350Z,96.47
2023-02-15T07:45:57.330Z,96.68
2023-02-15T07:46:57.343Z,96.89
2023-02-15T07:47:57.333Z,96.89
2023-02-15T07:48:57.360Z,96.89
2023-02-15T07:49:57.317Z,96.89
2023-02-15T07:50:57.296Z,96.89
2023-02-15T07:51:57.293Z,96.95
2023-02-15T07:52:57.263Z,96.95
2023-02-15T07:53:57.258Z,96.95
2023-02-15T07:54:57.273Z,96.95
2023-02-15T07:55:57.264Z,96.84
2023-02-15T07:56:57.234Z,96.70
2023-02-15T07:57:57.236Z,96.49
2023-02-15T07:58:57.194Z,96.17
2023-02-15T07:59:57.205Z,95.97
2023-02-15T08:00:57.216Z,95.86
2023-02-15T08:01:57.365Z,95.86
2023-02-15T08:02:57.224Z,95.86
2023-02-15T08:03:57.796Z,95.86
2023-02-15T08:04:57.137Z,95.65
2023-02-15T08:05:57.125Z,95.34
2023-02-15T08:06:57.138Z,95.23
2023-02-15T08:07:57.105Z,95.13
2023-02-15T08:08:57.103Z,95.17
2023-02-15T08:09:57.106Z,95.38
2023-02-15T08:10:57.093Z,95.64
2023-02-15T08:11:57.096Z,95.95
2023-02-15T08:12:57.057Z,96.16
2023-02-15T08:13:57.100Z,96.58
2023-02-15T08:14:57.028Z,96.68
2023-02-15T08:15:57.053Z,96.68
2023-02-15T08:16:57.133Z,96.78
2023-02-15T08:17:57.039Z,97.00
2023-02-15T08:18:56.999Z,97.10
2023-02-15T08:19:57.027Z,96.89
2023-02-15T08:20:56.981Z,96.89
2023-02-15T08:21:56.979Z,96.95
2023-02-15T08:22:56.951Z,96.95
2023-02-15T08:23:56.976Z,96.89
2023-02-15T08:24:56.941Z,96.95
2023-02-15T08:25:56.940Z,96.74
2023-02-15T08:26:56.936Z,96.43
2023-02-15T08:27:56.906Z,96.33
2023-02-15T08:28:56.929Z,96.22
2023-02-15T08:29:56.942Z,96.33
2023-02-15T08:30:56.890Z,96.33
2023-02-15T08:31:56.971Z,96.43
2023-02-15T08:32:56.841Z,96.53
2023-02-15T08:33:56.874Z,96.53
2023-02-15T08:34:56.833Z,96.70
2023-02-15T08:35:56.824Z,96.70
2023-02-15T08:36:56.804Z,96.59
2023-02-15T08:37:56.822Z,96.70
2023-02-15T08:38:56.801Z,96.59
2023-02-15T08:39:56.786Z,96.59
2023-02-15T08:40:56.774Z,96.49
2023-02-15T08:41:56.812Z,96.59
2023-02-15T08:42:56.784Z,96.66
2023-02-15T08:43:56.767Z,96.76
2023-02-15T08:44:56.757Z,96.71
2023-02-15T08:45:56.786Z,96.71
2023-02-15T08:46:56.705Z,96.71
2023-02-15T08:47:56.739Z,96.67
2023-02-15T08:48:56.694Z,96.36
2023-02-15T08:49:56.693Z,96.15
2023-02-15T08:50:56.684Z,95.83
2023-02-15T08:51:56.664Z,95.68
2023-02-15T08:52:56.652Z,95.58
2023-02-15T08:53:56.651Z,95.17
2023-02-15T08:54:56.645Z,94.96
2023-02-15T08:55:56.639Z,94.85
2023-02-15T08:56:56.607Z,94.70
2023-02-15T08:57:56.612Z,94.60
2023-02-15T08:58:56.612Z,94.60
2023-02-15T08:59:56.585Z,94.49
2023-02-15T09:00:56.584Z,94.39
2023-02-15T09:01:56.666Z,94.08
2023-02-15T09:02:56.532Z,93.56
2023-02-15T09:03:56.540Z,93.35
2023-02-15T09:04:56.532Z,93.46
2023-02-15T09:05:56.543Z,93.66
2023-02-15T09:06:56.537Z,93.83
2023-02-15T09:07:56.492Z,93.83
2023-02-15T09:08:56.476Z,93.62
2023-02-15T09:09:56.475Z,93.31
2023-02-15T09:10:56.463Z,93.20
2023-02-15T09:11:59.566Z,93.31
2023-02-15T09:12:56.433Z,93.41
2023-02-15T09:13:56.437Z,93.41
2023-02-15T09:14:56.425Z,93.41
2023-02-15T09:15:56.437Z,93.31
2023-02-15T09:16:56.528Z,93.41
2023-02-15T09:17:56.394Z,93.16
2023-02-15T09:18:56.372Z,92.54
2023-02-15T09:19:56.371Z,92.33
2023-02-15T09:20:56.366Z,92.33
2023-02-15T09:21:56.356Z,92.22
2023-02-15T09:22:58.574Z,92.33
2023-02-15T09:23:56.321Z,92.54
2023-02-15T09:24:56.315Z,92.49
2023-02-15T09:25:56.312Z,92.39
2023-02-15T09:26:56.310Z,92.39
2023-02-15T09:27:56.311Z,92.29
2023-02-15T09:28:56.281Z,92.14
2023-02-15T09:29:56.325Z,91.62
2023-02-15T09:30:56.251Z,91.31
2023-02-15T09:31:56.305Z,91.00
2023-02-15T09:32:56.234Z,90.64
2023-02-15T09:33:56.246Z,90.44
2023-02-15T09:34:56.202Z,90.23
2023-02-15T09:35:56.212Z,90.12
2023-02-15T09:36:56.193Z,90.02
2023-02-15T09:37:56.173Z,90.02
2023-02-15T09:38:56.191Z,90.12
2023-02-15T09:39:56.180Z,90.44
2023-02-15T09:40:56.154Z,90.64
2023-02-15T09:41:56.164Z,90.64
2023-02-15T09:42:56.128Z,90.29
2023-02-15T09:43:56.131Z,90.19
2023-02-15T09:44:56.119Z,90.39
2023-02-15T09:45:56.171Z,90.50
2023-02-15T09:46:56.111Z,90.14
2023-02-15T09:47:56.122Z,89.73
2023-02-15T09:48:56.055Z,89.11
2023-02-15T09:49:56.073Z,89.00
2023-02-15T09:50:56.051Z,89.11
2023-02-15T09:51:56.031Z,89.31
2023-02-15T09:52:56.022Z,89.31
2023-02-15T09:53:56.040Z,89.11
2023-02-15T09:54:56.016Z,89.06
2023-02-15T09:55:56.008Z,88.65
2023-02-15T09:56:55.978Z,87.71
2023-02-15T09:57:55.985Z,87.92
2023-02-15T09:58:55.974Z,87.51
2023-02-15T09:59:55.945Z,87.13
2023-02-15T10:00:55.981Z,87.55
2023-02-15T10:01:55.954Z,88.02
2023-02-15T10:02:55.932Z,87.82
2023-02-15T10:03:55.931Z,87.82
2023-02-15T10:04:55.994Z,87.71
2023-02-15T10:05:55.893Z,86.99
2023-02-15T10:06:55.885Z,86.74
2023-02-15T10:07:55.865Z,86.16
2023-02-15T10:08:55.891Z,86.16
2023-02-15T10:09:55.886Z,86.57
2023-02-15T10:10:55.847Z,87.19
2023-02-15T10:11:55.860Z,86.85
2023-02-15T10:12:55.832Z,86.85
2023-02-15T10:13:55.822Z,86.85
2023-02-15T10:14:55.810Z,86.85
2023-02-15T10:15:55.808Z,86.54
2023-02-15T10:16:55.801Z,86.54
2023-02-15T10:17:55.779Z,86.43
2023-02-15T10:18:55.747Z,86.22
2023-02-15T10:19:55.749Z,86.39
2023-02-15T10:20:55.762Z,85.71
2023-02-15T10:21:55.739Z,85.60
2023-02-15T10:22:55.710Z,85.39
2023-02-15T10:23:55.698Z,85.19
2023-02-15T10:24:55.705Z,85.81
2023-02-15T10:25:55.678Z,86.54
2023-02-15T10:26:55.678Z,86.74
2023-02-15T10:27:55.786Z,86.47
2023-02-15T10:28:55.670Z,86.47
2023-02-15T10:29:55.704Z,86.88
2023-02-15T10:30:55.716Z,87.40
2023-02-15T10:31:55.761Z,87.82
2023-02-15T10:32:55.616Z,88.02
2023-02-15T10:33:55.608Z,88.23
2023-02-15T10:34:55.598Z,88.30
2023-02-15T10:35:55.596Z,88.34
2023-02-15T10:36:55.558Z,88.44
2023-02-15T10:37:55.560Z,88.75
2023-02-15T10:38:55.555Z,88.71
2023-02-15T10:39:55.545Z,88.71
2023-02-15T10:40:55.518Z,88.51
2023-02-15T10:41:55.529Z,88.51
2023-02-15T10:42:55.513Z,88.61
2023-02-15T10:43:55.518Z,88.61
2023-02-15T10:44:55.487Z,88.71
2023-02-15T10:45:55.541Z,88.40
2023-02-15T10:46:55.465Z,88.61
2023-02-15T10:47:55.450Z,88.71
2023-02-15T10:48:55.470Z,88.82
2023-02-15T10:49:55.448Z,88.61
2023-02-15T10:50:55.428Z,88.40
2023-02-15T10:51:55.426Z,88.36
2023-02-15T10:52:55.428Z,88.46
2023-02-15T10:53:55.387Z,88.67
2023-02-15T10:54:55.370Z,88.36
2023-02-15T10:55:55.388Z,88.36
2023-02-15T10:56:55.359Z,88.46
2023-02-15T10:57:55.359Z,88.05
2023-02-15T10:58:55.360Z,88.15
2023-02-15T10:59:55.337Z,88.15
2023-02-15T11:00:55.309Z,88.26
2023-02-15T11:01:55.382Z,88.36
2023-02-15T11:02:55.299Z,88.42
2023-02-15T11:03:55.285Z,88.32
2023-02-15T11:04:55.310Z,87.90
2023-02-15T11:05:55.271Z,88.01
2023-02-15T11:06:55.254Z,87.97
2023-02-15T11:07:55.250Z,87.76
2023-02-15T11:08:55.228Z,87.66
2023-02-15T11:09:55.230Z,87.76
2023-02-15T11:10:55.209Z,87.55
2023-02-15T11:11:55.226Z,87.41
2023-02-15T11:12:55.210Z,87.30
2023-02-15T11:13:55.181Z,87.20
2023-02-15T11:14:55.157Z,86.89
2023-02-15T11:15:55.221Z,86.99
2023-02-15T11:16:55.139Z,87.16
2023-02-15T11:17:55.159Z,86.65
2023-02-15T11:18:55.145Z,86.33
2023-02-15T11:19:55.128Z,86.13
2023-02-15T11:20:55.109Z,86.33
2023-02-15T11:21:55.092Z,86.23
2023-02-15T11:22:55.069Z,86.13
2023-02-15T11:23:55.121Z,86.44
2023-02-15T11:24:55.067Z,86.50
2023-02-15T11:25:55.062Z,86.60
2023-02-15T11:26:55.053Z,86.71
2023-02-15T11:27:55.030Z,86.81
2023-02-15T11:28:55.009Z,87.02
2023-02-15T11:29:55.070Z,86.36
2023-02-15T11:30:55.096Z,85.84
2023-02-15T11:31:55.131Z,85.63
2023-02-15T11:32:54.983Z,85.39
2023-02-15T11:33:55.008Z,85.49
2023-02-15T11:34:54.950Z,85.49
2023-02-15T11:35:54.942Z,84.94
2023-02-15T11:36:54.922Z,84.11
2023-02-15T11:37:54.951Z,83.80
2023-02-15T11:38:54.923Z,83.25
2023-02-15T11:39:54.912Z,82.93
2023-02-15T11:40:54.889Z,83.04
2023-02-15T11:41:54.913Z,82.93
2023-02-15T11:42:54.869Z,82.31
2023-02-15T11:43:54.899Z,82.17
2023-02-15T11:44:54.851Z,81.86
2023-02-15T11:45:54.852Z,82.28
2023-02-15T11:46:54.819Z,82.38
2023-02-15T11:47:54.825Z,81.51
2023-02-15T11:48:54.808Z,81.72
2023-02-15T11:49:54.817Z,82.14
2023-02-15T11:50:54.776Z,81.68
2023-02-15T11:51:54.781Z,80.96
2023-02-15T11:52:54.790Z,80.72
2023-02-15T11:53:54.754Z,80.20
2023-02-15T11:54:54.759Z,79.90
2023-02-15T11:55:54.720Z,79.96
2023-02-15T11:56:54.733Z,79.82
2023-02-15T11:57:54.718Z,80.13
2023-02-15T11:58:54.710Z,78.96
2023-02-15T11:59:54.683Z,79.06
2023-02-15T12:00:54.692Z,78.41
2023-02-15T12:01:54.680Z,77.69
2023-02-15T12:02:54.705Z,77.34
2023-02-15T12:03:54.722Z,76.83
2023-02-15T12:04:54.620Z,76.18
2023-02-15T12:05:54.628Z,76.07
2023-02-15T12:06:54.734Z,75.63
2023-02-15T12:07:54.633Z,74.98
2023-02-15T12:08:54.580Z,74.84
2023-02-15T12:09:54.658Z,73.64
2023-02-15T12:10:54.566Z,71.93
2023-02-15T12:11:54.562Z,69.96
2023-02-15T12:12:54.571Z,67.92
2023-02-15T12:13:54.540Z,65.14
2023-02-15T12:14:54.564Z,63.22
2023-02-15T12:15:54.561Z,60.99
2023-02-15T12:16:54.511Z,58.91
2023-02-15T12:17:54.492Z,58.04
2023-02-15T12:18:54.491Z,57.68
2023-02-15T12:19:54.470Z,56.31
2023-02-15T12:20:54.470Z,54.82
2023-02-15T12:21:54.460Z,53.32
2023-02-15T12:22:54.442Z,51.93
2023-02-15T12:23:54.431Z,50.27
2023-02-15T12:24:54.413Z,49.24
2023-02-15T12:25:54.431Z,48.52
2023-02-15T12:26:54.396Z,47.99
2023-02-15T12:27:54.405Z,47.44
2023-02-15T12:28:54.412Z,46.92
2023-02-15T12:29:54.421Z,46.19
2023-02-15T12:30:54.453Z,45.57
2023-02-15T12:31:54.462Z,45.45
2023-02-15T12:32:54.344Z,45.02
2023-02-15T12:33:54.313Z,45.30
2023-02-15T12:34:54.325Z,44.00
2023-02-15T12:35:54.294Z,44.50
2023-02-15T12:36:54.296Z,44.70
2023-02-15T12:37:54.292Z,44.82
2023-02-15T12:38:59.510Z,44.82
2023-02-15T12:39:55.286Z,45.00
2023-02-15T12:40:54.294Z,44.88
2023-02-15T12:41:54.241Z,44.40
2023-02-15T12:42:54.217Z,44.60
2023-02-15T12:43:54.211Z,44.90
2023-02-15T12:44:54.217Z,44.70
2023-02-15T12:45:54.196Z,44.40
2023-02-15T12:46:54.234Z,44.40
2023-02-15T12:47:54.177Z,44.48
2023-02-15T12:48:54.177Z,44.50
2023-02-15T12:49:54.149Z,44.60
2023-02-15T12:50:55.377Z,44.50
2023-02-15T12:51:54.126Z,44.40